sensor_id;sensor_type;location;lat;lon;timestamp;P1;durP1;ratioP1;P2;durP2;ratioP2
20421;SDS011;10370;53.102;18.034;2022-11-15T00:02:24;193.63;;;55.27;;
20421;SDS011;10370;53.102;18.034;2022-11-15T00:07:46;184.90;;;53.65;;
20421;SDS011;10370;53.102;18.034;2022-11-15T00:13:14;182.32;;;51.90;;
20421;SDS011;10370;53.102;18.034;2022-11-15T00:18:35;176.93;;;52.45;;
20421;SDS011;10370;53.102;18.034;2022-11-15T00:23:58;197.30;;;54.83;;
20421;SDS011;10370;53.102;18.034;2022-11-15T00:29:18;193.83;;;54.30;;
20421;SDS011;10370;53.102;18.034;2022-11-15T00:34:39;179.23;;;50.60;;
20421;SDS011;10370;53.102;18.034;2022-11-15T00:40:00;185.40;;;51.35;;
20421;SDS011;10370;53.102;18.034;2022-11-15T00:45:22;194.55;;;54.85;;
20421;SDS011;10370;53.102;18.034;2022-11-15T00:50:43;194.05;;;53.88;;
20421;SDS011;10370;53.102;18.034;2022-11-15T00:56:04;197.85;;;52.90;;
20421;SDS011;10370;53.102;18.034;2022-11-15T01:01:25;191.43;;;53.22;;
20421;SDS011;10370;53.102;18.034;2022-11-15T01:06:46;185.73;;;53.33;;
20421;SDS011;10370;53.102;18.034;2022-11-15T01:12:07;174.88;;;50.38;;
20421;SDS011;10370;53.102;18.034;2022-11-15T01:17:30;180.43;;;51.80;;
20421;SDS011;10370;53.102;18.034;2022-11-15T01:22:51;191.32;;;50.28;;
20421;SDS011;10370;53.102;18.034;2022-11-15T01:28:12;171.45;;;50.28;;
20421;SDS011;10370;53.102;18.034;2022-11-15T01:33:34;191.95;;;51.58;;
20421;SDS011;10370;53.102;18.034;2022-11-15T01:38:59;176.27;;;49.38;;
20421;SDS011;10370;53.102;18.034;2022-11-15T01:50:06;180.00;;;48.40;;
20421;SDS011;10370;53.102;18.034;2022-11-15T01:55:31;189.38;;;48.75;;
20421;SDS011;10370;53.102;18.034;2022-11-15T02:00:52;181.57;;;50.00;;
20421;SDS011;10370;53.102;18.034;2022-11-15T02:06:13;197.68;;;48.40;;
20421;SDS011;10370;53.102;18.034;2022-11-15T02:11:35;202.38;;;50.25;;
20421;SDS011;10370;53.102;18.034;2022-11-15T02:28:44;196.87;;;47.27;;
20421;SDS011;10370;53.102;18.034;2022-11-15T02:34:09;179.93;;;48.95;;
20421;SDS011;10370;53.102;18.034;2022-11-15T02:39:53;176.77;;;47.33;;
20421;SDS011;10370;53.102;18.034;2022-11-15T02:45:21;184.70;;;46.93;;
20421;SDS011;10370;53.102;18.034;2022-11-15T02:50:47;176.43;;;45.40;;
20421;SDS011;10370;53.102;18.034;2022-11-15T02:56:09;170.17;;;45.00;;
20421;SDS011;10370;53.102;18.034;2022-11-15T03:01:43;165.48;;;44.08;;
20421;SDS011;10370;53.102;18.034;2022-11-15T03:07:36;136.85;;;39.15;;
20421;SDS011;10370;53.102;18.034;2022-11-15T03:18:52;138.90;;;38.90;;
20421;SDS011;10370;53.102;18.034;2022-11-15T03:24:18;135.50;;;38.90;;
20421;SDS011;10370;53.102;18.034;2022-11-15T03:29:46;130.57;;;37.13;;
20421;SDS011;10370;53.102;18.034;2022-11-15T03:35:13;127.87;;;36.57;;
20421;SDS011;10370;53.102;18.034;2022-11-15T03:40:45;147.53;;;38.60;;
20421;SDS011;10370;53.102;18.034;2022-11-15T03:46:32;129.60;;;38.55;;
20421;SDS011;10370;53.102;18.034;2022-11-15T03:51:57;123.32;;;35.78;;
20421;SDS011;10370;53.102;18.034;2022-11-15T03:57:19;145.00;;;38.13;;
20421;SDS011;10370;53.102;18.034;2022-11-15T04:02:40;147.68;;;38.55;;
20421;SDS011;10370;53.102;18.034;2022-11-15T04:08:01;150.50;;;38.38;;
20421;SDS011;10370;53.102;18.034;2022-11-15T04:13:22;140.15;;;37.75;;
20421;SDS011;10370;53.102;18.034;2022-11-15T04:18:43;155.02;;;37.08;;
20421;SDS011;10370;53.102;18.034;2022-11-15T04:24:04;138.18;;;38.53;;
20421;SDS011;10370;53.102;18.034;2022-11-15T04:29:26;153.13;;;39.92;;
20421;SDS011;10370;53.102;18.034;2022-11-15T04:34:56;175.63;;;41.87;;
20421;SDS011;10370;53.102;18.034;2022-11-15T04:40:17;148.77;;;39.67;;
20421;SDS011;10370;53.102;18.034;2022-11-15T04:45:38;122.60;;;35.42;;
20421;SDS011;10370;53.102;18.034;2022-11-15T04:51:02;121.35;;;36.28;;
20421;SDS011;10370;53.102;18.034;2022-11-15T04:56:23;133.75;;;37.00;;
20421;SDS011;10370;53.102;18.034;2022-11-15T05:01:46;133.30;;;37.53;;
20421;SDS011;10370;53.102;18.034;2022-11-15T05:07:07;158.23;;;38.47;;
20421;SDS011;10370;53.102;18.034;2022-11-15T05:12:28;146.90;;;38.72;;
20421;SDS011;10370;53.102;18.034;2022-11-15T05:17:49;135.00;;;38.72;;
20421;SDS011;10370;53.102;18.034;2022-11-15T05:23:10;137.13;;;36.23;;
20421;SDS011;10370;53.102;18.034;2022-11-15T05:28:32;131.63;;;36.13;;
20421;SDS011;10370;53.102;18.034;2022-11-15T05:33:54;146.60;;;38.42;;
20421;SDS011;10370;53.102;18.034;2022-11-15T05:39:16;138.00;;;38.08;;
20421;SDS011;10370;53.102;18.034;2022-11-15T05:44:38;139.05;;;38.13;;
20421;SDS011;10370;53.102;18.034;2022-11-15T05:50:02;147.68;;;38.15;;
20421;SDS011;10370;53.102;18.034;2022-11-15T05:55:23;143.20;;;36.28;;
20421;SDS011;10370;53.102;18.034;2022-11-15T06:00:46;144.98;;;38.08;;
20421;SDS011;10370;53.102;18.034;2022-11-15T06:37:56;152.90;;;39.55;;
20421;SDS011;10370;53.102;18.034;2022-11-15T06:43:26;137.70;;;37.20;;
20421;SDS011;10370;53.102;18.034;2022-11-15T06:48:47;141.35;;;36.97;;
20421;SDS011;10370;53.102;18.034;2022-11-15T06:54:10;130.63;;;37.17;;
20421;SDS011;10370;53.102;18.034;2022-11-15T06:59:32;116.18;;;33.42;;
20421;SDS011;10370;53.102;18.034;2022-11-15T07:04:58;108.18;;;34.03;;
20421;SDS011;10370;53.102;18.034;2022-11-15T07:10:19;122.05;;;34.55;;
20421;SDS011;10370;53.102;18.034;2022-11-15T07:15:41;107.55;;;34.88;;
20421;SDS011;10370;53.102;18.034;2022-11-15T07:21:09;127.63;;;35.35;;
20421;SDS011;10370;53.102;18.034;2022-11-15T07:27:18;113.93;;;33.20;;
20421;SDS011;10370;53.102;18.034;2022-11-15T07:32:44;113.95;;;35.22;;
20421;SDS011;10370;53.102;18.034;2022-11-15T07:38:06;121.38;;;35.65;;
20421;SDS011;10370;53.102;18.034;2022-11-15T07:43:28;157.60;;;36.40;;
20421;SDS011;10370;53.102;18.034;2022-11-15T07:48:53;137.45;;;38.40;;
20421;SDS011;10370;53.102;18.034;2022-11-15T07:54:14;116.20;;;34.88;;
20421;SDS011;10370;53.102;18.034;2022-11-15T07:59:35;101.90;;;31.80;;
20421;SDS011;10370;53.102;18.034;2022-11-15T08:04:56;102.45;;;31.23;;
20421;SDS011;10370;53.102;18.034;2022-11-15T08:10:18;77.65;;;28.98;;
20421;SDS011;10370;53.102;18.034;2022-11-15T08:15:40;107.78;;;31.40;;
20421;SDS011;10370;53.102;18.034;2022-11-15T08:21:02;110.32;;;30.55;;
20421;SDS011;10370;53.102;18.034;2022-11-15T08:26:23;128.00;;;32.42;;
20421;SDS011;10370;53.102;18.034;2022-11-15T08:31:46;114.20;;;30.90;;
20421;SDS011;10370;53.102;18.034;2022-11-15T08:37:07;143.35;;;36.33;;
20421;SDS011;10370;53.102;18.034;2022-11-15T08:42:30;110.57;;;34.72;;
20421;SDS011;10370;53.102;18.034;2022-11-15T08:47:55;130.23;;;32.75;;
20421;SDS011;10370;53.102;18.034;2022-11-15T08:53:17;118.72;;;32.90;;
20421;SDS011;10370;53.102;18.034;2022-11-15T08:58:38;131.68;;;35.38;;
20421;SDS011;10370;53.102;18.034;2022-11-15T09:04:01;116.05;;;34.83;;
20421;SDS011;10370;53.102;18.034;2022-11-15T09:09:30;107.13;;;32.42;;
20421;SDS011;10370;53.102;18.034;2022-11-15T09:14:54;106.88;;;32.28;;
20421;SDS011;10370;53.102;18.034;2022-11-15T09:20:15;101.07;;;30.52;;
20421;SDS011;10370;53.102;18.034;2022-11-15T09:25:36;91.00;;;30.13;;
20421;SDS011;10370;53.102;18.034;2022-11-15T09:30:57;93.03;;;32.17;;
20421;SDS011;10370;53.102;18.034;2022-11-15T09:36:22;94.50;;;29.95;;
20421;SDS011;10370;53.102;18.034;2022-11-15T09:42:00;98.22;;;30.88;;
20421;SDS011;10370;53.102;18.034;2022-11-15T09:48:00;109.47;;;33.08;;
20421;SDS011;10370;53.102;18.034;2022-11-15T10:04:35;93.40;;;31.63;;
20421;SDS011;10370;53.102;18.034;2022-11-15T10:10:10;105.40;;;34.13;;
20421;SDS011;10370;53.102;18.034;2022-11-15T10:32:44;94.80;;;32.35;;
20421;SDS011;10370;53.102;18.034;2022-11-15T10:38:12;85.10;;;30.08;;
20421;SDS011;10370;53.102;18.034;2022-11-15T10:43:33;91.15;;;32.10;;
20421;SDS011;10370;53.102;18.034;2022-11-15T10:55:02;85.40;;;30.83;;
20421;SDS011;10370;53.102;18.034;2022-11-15T11:00:39;97.82;;;33.28;;
20421;SDS011;10370;53.102;18.034;2022-11-15T11:06:07;101.18;;;34.10;;
20421;SDS011;10370;53.102;18.034;2022-11-15T11:11:46;127.22;;;37.08;;
20421;SDS011;10370;53.102;18.034;2022-11-15T11:50:29;111.70;;;38.30;;
20421;SDS011;10370;53.102;18.034;2022-11-15T12:01:36;110.95;;;36.53;;
20421;SDS011;10370;53.102;18.034;2022-11-15T13:50:14;110.20;;;36.85;;
20421;SDS011;10370;53.102;18.034;2022-11-15T14:08:04;116.93;;;37.42;;
20421;SDS011;10370;53.102;18.034;2022-11-15T14:36:28;135.35;;;38.15;;
20421;SDS011;10370;53.102;18.034;2022-11-15T14:41:53;148.93;;;41.58;;
20421;SDS011;10370;53.102;18.034;2022-11-15T14:47:25;161.27;;;42.70;;
20421;SDS011;10370;53.102;18.034;2022-11-15T15:36:24;248.52;;;60.65;;
20421;SDS011;10370;53.102;18.034;2022-11-15T15:42:39;235.17;;;56.37;;
20421;SDS011;10370;53.102;18.034;2022-11-15T15:49:34;147.25;;;40.13;;
20421;SDS011;10370;53.102;18.034;2022-11-15T16:16:43;163.27;;;40.57;;
20421;SDS011;10370;53.102;18.034;2022-11-15T16:33:49;151.23;;;39.27;;
20421;SDS011;10370;53.102;18.034;2022-11-15T16:44:52;118.87;;;33.87;;
20421;SDS011;10370;53.102;18.034;2022-11-15T16:50:30;124.30;;;36.53;;
20421;SDS011;10370;53.102;18.034;2022-11-15T16:56:22;137.83;;;38.47;;
20421;SDS011;10370;53.102;18.034;2022-11-15T17:02:02;128.97;;;36.70;;
20421;SDS011;10370;53.102;18.034;2022-11-15T17:07:34;119.23;;;35.03;;
20421;SDS011;10370;53.102;18.034;2022-11-15T17:18:22;108.38;;;32.88;;
20421;SDS011;10370;53.102;18.034;2022-11-15T17:24:00;110.53;;;33.00;;
20421;SDS011;10370;53.102;18.034;2022-11-15T17:30:03;125.97;;;35.83;;
20421;SDS011;10370;53.102;18.034;2022-11-15T17:51:58;133.47;;;35.33;;
20421;SDS011;10370;53.102;18.034;2022-11-15T17:57:18;139.43;;;37.57;;
20421;SDS011;10370;53.102;18.034;2022-11-15T18:02:39;140.97;;;39.27;;
20421;SDS011;10370;53.102;18.034;2022-11-15T18:08:00;146.95;;;37.58;;
20421;SDS011;10370;53.102;18.034;2022-11-15T18:13:21;137.53;;;37.13;;
20421;SDS011;10370;53.102;18.034;2022-11-15T18:18:42;141.60;;;36.85;;
20421;SDS011;10370;53.102;18.034;2022-11-15T18:24:04;128.30;;;36.55;;
20421;SDS011;10370;53.102;18.034;2022-11-15T18:29:25;134.40;;;39.47;;
20421;SDS011;10370;53.102;18.034;2022-11-15T18:34:47;122.22;;;34.28;;
20421;SDS011;10370;53.102;18.034;2022-11-15T18:40:08;119.97;;;31.63;;
20421;SDS011;10370;53.102;18.034;2022-11-15T18:45:29;121.90;;;33.03;;
20421;SDS011;10370;53.102;18.034;2022-11-15T18:50:58;126.73;;;33.33;;
20421;SDS011;10370;53.102;18.034;2022-11-15T18:56:27;130.30;;;33.83;;
20421;SDS011;10370;53.102;18.034;2022-11-15T19:01:49;127.23;;;35.07;;
20421;SDS011;10370;53.102;18.034;2022-11-15T19:07:11;118.23;;;34.87;;
20421;SDS011;10370;53.102;18.034;2022-11-15T19:12:32;109.47;;;33.57;;
20421;SDS011;10370;53.102;18.034;2022-11-15T19:17:53;121.95;;;36.75;;
20421;SDS011;10370;53.102;18.034;2022-11-15T19:23:14;108.17;;;32.23;;
20421;SDS011;10370;53.102;18.034;2022-11-15T19:28:35;112.60;;;31.35;;
20421;SDS011;10370;53.102;18.034;2022-11-15T19:33:59;114.20;;;32.03;;
20421;SDS011;10370;53.102;18.034;2022-11-15T19:39:23;100.60;;;30.90;;
20421;SDS011;10370;53.102;18.034;2022-11-15T19:44:44;111.07;;;33.07;;
20421;SDS011;10370;53.102;18.034;2022-11-15T19:50:05;112.40;;;34.08;;
20421;SDS011;10370;53.102;18.034;2022-11-15T19:55:27;94.53;;;30.75;;
20421;SDS011;10370;53.102;18.034;2022-11-15T20:00:48;99.17;;;29.13;;
20421;SDS011;10370;53.102;18.034;2022-11-15T20:06:11;99.07;;;31.13;;
20421;SDS011;10370;53.102;18.034;2022-11-15T20:11:35;111.13;;;36.35;;
20421;SDS011;10370;53.102;18.034;2022-11-15T20:16:58;104.20;;;30.48;;
20421;SDS011;10370;53.102;18.034;2022-11-15T20:22:19;94.80;;;28.00;;
20421;SDS011;10370;53.102;18.034;2022-11-15T20:27:40;109.05;;;31.73;;
20421;SDS011;10370;53.102;18.034;2022-11-15T20:33:01;125.57;;;36.10;;
20421;SDS011;10370;53.102;18.034;2022-11-15T20:38:22;111.63;;;31.13;;
20421;SDS011;10370;53.102;18.034;2022-11-15T20:43:43;93.38;;;30.35;;
20421;SDS011;10370;53.102;18.034;2022-11-15T20:49:04;96.00;;;30.58;;
20421;SDS011;10370;53.102;18.034;2022-11-15T20:54:25;96.28;;;29.73;;
20421;SDS011;10370;53.102;18.034;2022-11-15T20:59:46;94.70;;;28.27;;
20421;SDS011;10370;53.102;18.034;2022-11-15T21:05:07;89.28;;;29.52;;
20421;SDS011;10370;53.102;18.034;2022-11-15T21:10:28;87.43;;;29.15;;
20421;SDS011;10370;53.102;18.034;2022-11-15T21:16:09;77.27;;;24.97;;
20421;SDS011;10370;53.102;18.034;2022-11-15T21:21:30;75.23;;;25.20;;
20421;SDS011;10370;53.102;18.034;2022-11-15T21:26:51;81.90;;;25.47;;
20421;SDS011;10370;53.102;18.034;2022-11-15T21:32:14;72.77;;;24.77;;
20421;SDS011;10370;53.102;18.034;2022-11-15T21:37:35;65.45;;;22.83;;
20421;SDS011;10370;53.102;18.034;2022-11-15T21:42:56;68.53;;;23.70;;
20421;SDS011;10370;53.102;18.034;2022-11-15T21:48:17;72.80;;;23.97;;
20421;SDS011;10370;53.102;18.034;2022-11-15T21:53:39;68.03;;;24.00;;
20421;SDS011;10370;53.102;18.034;2022-11-15T21:59:00;71.17;;;22.37;;
20421;SDS011;10370;53.102;18.034;2022-11-15T22:04:21;66.00;;;23.10;;
20421;SDS011;10370;53.102;18.034;2022-11-15T22:09:43;65.13;;;23.23;;
20421;SDS011;10370;53.102;18.034;2022-11-15T22:15:05;65.97;;;23.43;;
20421;SDS011;10370;53.102;18.034;2022-11-15T22:20:26;64.70;;;22.47;;
20421;SDS011;10370;53.102;18.034;2022-11-15T22:26:05;66.83;;;25.73;;
20421;SDS011;10370;53.102;18.034;2022-11-15T22:31:27;65.53;;;21.93;;
20421;SDS011;10370;53.102;18.034;2022-11-15T22:36:49;58.47;;;23.00;;
20421;SDS011;10370;53.102;18.034;2022-11-15T22:42:30;54.70;;;20.10;;
20421;SDS011;10370;53.102;18.034;2022-11-15T22:47:52;61.73;;;22.97;;
20421;SDS011;10370;53.102;18.034;2022-11-15T22:53:15;65.57;;;23.17;;
20421;SDS011;10370;53.102;18.034;2022-11-15T22:58:38;61.33;;;23.90;;
20421;SDS011;10370;53.102;18.034;2022-11-15T23:03:59;64.85;;;22.73;;
20421;SDS011;10370;53.102;18.034;2022-11-15T23:09:21;61.85;;;21.83;;
20421;SDS011;10370;53.102;18.034;2022-11-15T23:14:42;64.67;;;23.83;;
20421;SDS011;10370;53.102;18.034;2022-11-15T23:20:03;69.90;;;25.83;;
20421;SDS011;10370;53.102;18.034;2022-11-15T23:25:44;84.53;;;31.27;;
20421;SDS011;10370;53.102;18.034;2022-11-15T23:31:06;75.93;;;27.07;;
20421;SDS011;10370;53.102;18.034;2022-11-15T23:36:46;75.47;;;28.20;;
20421;SDS011;10370;53.102;18.034;2022-11-15T23:42:10;76.50;;;27.43;;
20421;SDS011;10370;53.102;18.034;2022-11-15T23:47:39;84.57;;;28.10;;
20421;SDS011;10370;53.102;18.034;2022-11-15T23:53:03;80.53;;;27.53;;
20421;SDS011;10370;53.102;18.034;2022-11-15T23:58:25;82.90;;;28.65;;
